Hite, UT

1:31 AM MDT on September 05, 2015 (GMT -0600)
Page Municipal | | Change Station
CLOSE
Current Station
Airport
Location: Page,
Elevation: 4308 ft
Nearby Weather Stations

Elev 4308 ft 36.92 °N, 111.45 °W | Updated 38 minutes ago

Mostly Cloudy
Mostly Cloudy
73 °F
Feels Like 73 °F
N
8
Wind Variable Wind from South

Today
High -- | Low -- °F
--% Chance of Precip.
Yesterday
High -- | Low -- °F
Precip. -- in
6:56 AM 7:46 PM
Waning Gibbous, 51% visible
Pressure 29.75 in
Visibility 10.0 miles
Clouds Clear
Dew Point 51 °F
Humidity 46%
Rainfall 0.03 in
Snow Depth Not available.
UV 0 out of 12
Pollen 6.70 out of 12
Air Quality Not available.
Flu Activity Not available.
METAR KPGA 050653Z AUTO 19007KT 10SM CLR 23/11 A2995 RMK AO2 SLP075 T02280106 403170211 TSNO
Pressure 29.75 in
Visibility 10.0 miles
Clouds Clear
Dew Point 51 °F
Humidity 46%
Rainfall 0.03 in
Snow Depth Not available.
UV 0 out of 12
Pollen 6.70 out of 12
Air Quality Not available.
Flu Activity Not available.
METAR KPGA 050653Z AUTO 19007KT 10SM CLR 23/11 A2995 RMK AO2 SLP075 T02280106 403170211 TSNO

10-Day Weather Forecast

×

Almanac

Astronomy

Sep. 05, 2015 Rise Set
Actual Time
Civil Twilight
Nautical Twilight
Astronomical Twilight
Moon
Length of Visible Light
Length of Day
Tomorrow will be .
, % of the Moon is Illuminated

Today's Extremes

State Highs State Lows

Community

WunderPhotos

Upload Photos

1,852,436 photos uploaded!

WunderBlogs® & News

Nearby

Air Quality

  Air Quality AQ Index Pollutant
Not available.

Snow Depth

Station Depth Elevation

Earthquake Activity

City Distance Mag. Time & Date
Minimum magnitude displayed is 2.5.

Coastal Water Temperatures

Place Temperature

Stations

Nearby Weather Stations

Station Location Temp. Windchill Dew Point Humidity Wind Precip. Elev Updated Type